createdAt,value
2023-08-11T00:01:21.404Z,18.19
2023-08-11T00:02:54.763Z,18.19
2023-08-11T00:04:28.313Z,18.18
2023-08-11T00:06:02.362Z,18.17
2023-08-11T00:07:35.395Z,18.16
2023-08-11T00:09:10.163Z,18.14
2023-08-11T00:10:42.358Z,18.10
2023-08-11T00:12:15.706Z,18.07
2023-08-11T00:13:48.025Z,18.05
2023-08-11T00:15:21.686Z,17.98
2023-08-11T00:16:54.957Z,18.05
2023-08-11T00:18:29.911Z,18.05
2023-08-11T00:20:07.568Z,18.06
2023-08-11T00:21:39.834Z,18.07
2023-08-11T00:23:13.100Z,18.09
2023-08-11T00:24:45.599Z,18.10
2023-08-11T00:26:18.819Z,18.11
2023-08-11T00:27:51.496Z,18.10
2023-08-11T00:29:25.422Z,18.10
2023-08-11T00:30:58.033Z,18.02
2023-08-11T00:32:31.419Z,17.89
2023-08-11T00:34:04.967Z,17.86
2023-08-11T00:35:39.592Z,17.83
2023-08-11T00:37:12.075Z,17.80
2023-08-11T00:38:46.283Z,17.79
2023-08-11T00:40:18.689Z,17.79
2023-08-11T00:41:51.900Z,17.78
2023-08-11T00:43:24.238Z,17.77
2023-08-11T00:44:59.546Z,17.76
2023-08-11T00:46:31.725Z,17.77
2023-08-11T00:48:08.040Z,17.75
2023-08-11T00:49:40.422Z,17.65
2023-08-11T00:51:17.689Z,17.69
2023-08-11T00:52:51.384Z,17.64
2023-08-11T00:54:26.338Z,17.67
2023-08-11T00:55:58.806Z,17.64
2023-08-11T00:57:32.706Z,17.64
2023-08-11T00:59:05.790Z,17.63
2023-08-11T01:00:40.266Z,17.55
2023-08-11T01:02:14.591Z,17.50
2023-08-11T01:03:49.177Z,17.47
2023-08-11T01:05:21.723Z,17.41
2023-08-11T01:07:04.880Z,17.36
2023-08-11T01:08:46.652Z,17.30
2023-08-11T01:10:30.232Z,17.27
2023-08-11T01:12:09.799Z,17.28
2023-08-11T01:13:50.432Z,17.25
2023-08-11T01:15:27.733Z,17.28
2023-08-11T01:17:04.055Z,17.27
2023-08-11T01:18:36.610Z,17.28
2023-08-11T01:20:13.224Z,17.29
2023-08-11T01:21:49.869Z,17.28
2023-08-11T01:23:25.634Z,17.28
2023-08-11T01:24:59.073Z,17.20
2023-08-11T01:26:31.633Z,17.26
2023-08-11T01:28:05.208Z,17.24
2023-08-11T01:29:38.927Z,17.20
2023-08-11T01:31:12.362Z,17.14
2023-08-11T01:32:46.246Z,17.13
2023-08-11T01:34:20.941Z,17.09
2023-08-11T01:35:53.195Z,17.11
2023-08-11T01:37:26.431Z,17.10
2023-08-11T01:39:00.193Z,17.16
2023-08-11T01:40:33.480Z,17.18
2023-08-11T01:42:06.944Z,17.17
2023-08-11T01:43:42.239Z,17.22
2023-08-11T01:45:16.914Z,17.22
2023-08-11T01:46:51.123Z,17.22
2023-08-11T01:48:24.665Z,17.19
2023-08-11T01:49:59.109Z,17.13
2023-08-11T01:51:31.985Z,17.12
2023-08-11T01:53:05.541Z,17.07
2023-08-11T01:54:39.473Z,17.10
2023-08-11T01:56:13.866Z,17.12
2023-08-11T01:57:57.583Z,17.11
2023-08-11T01:59:33.162Z,17.11
2023-08-11T02:01:05.490Z,17.10
2023-08-11T02:02:39.714Z,17.04
2023-08-11T02:04:14.119Z,17.03
2023-08-11T02:05:46.592Z,16.96
2023-08-11T02:07:19.962Z,16.91
2023-08-11T02:08:52.214Z,16.89
2023-08-11T02:10:27.230Z,16.86
2023-08-11T02:11:59.512Z,16.95
2023-08-11T02:13:34.109Z,16.93
2023-08-11T02:15:08.131Z,16.89
2023-08-11T02:16:41.572Z,16.93
2023-08-11T02:18:15.572Z,16.97
2023-08-11T02:19:48.130Z,16.99
2023-08-11T02:21:22.255Z,16.98
2023-08-11T02:22:57.103Z,16.94
2023-08-11T02:24:30.315Z,17.03
2023-08-11T02:26:04.490Z,17.01
2023-08-11T02:27:37.994Z,16.97
2023-08-11T02:29:11.403Z,17.07
2023-08-11T02:30:44.632Z,17.08
2023-08-11T02:32:18.797Z,17.08
2023-08-11T02:33:52.156Z,17.06
2023-08-11T02:35:24.645Z,17.08
2023-08-11T02:36:57.892Z,17.06
2023-08-11T02:38:30.235Z,17.12
2023-08-11T02:40:04.524Z,17.10
2023-08-11T02:41:38.249Z,17.18
2023-08-11T02:43:12.277Z,17.18
2023-08-11T02:44:44.619Z,17.18
2023-08-11T02:46:17.960Z,17.22
2023-08-11T02:47:51.293Z,17.20
2023-08-11T02:49:24.494Z,17.20
2023-08-11T02:50:56.899Z,17.20
2023-08-11T02:52:30.103Z,17.21
2023-08-11T02:54:02.706Z,17.21
2023-08-11T02:55:36.170Z,17.20
2023-08-11T02:57:09.925Z,17.09
2023-08-11T02:58:43.330Z,17.08
2023-08-11T03:00:16.400Z,17.10
2023-08-11T03:01:50.311Z,17.12
2023-08-11T03:03:22.818Z,17.14
2023-08-11T03:04:56.213Z,17.15
2023-08-11T03:06:29.770Z,17.04
2023-08-11T03:08:03.110Z,17.09
2023-08-11T03:09:36.543Z,17.04
2023-08-11T03:11:10.335Z,17.12
2023-08-11T03:12:44.089Z,17.14
2023-08-11T03:14:18.349Z,17.14
2023-08-11T03:15:53.685Z,17.15
2023-08-11T03:17:26.665Z,17.17
2023-08-11T03:19:00.956Z,17.14
2023-08-11T03:20:34.161Z,17.11
2023-08-11T03:22:06.948Z,17.09
2023-08-11T03:23:40.366Z,17.05
2023-08-11T03:25:16.285Z,17.05
2023-08-11T03:26:48.671Z,17.03
2023-08-11T03:28:23.541Z,17.04
2023-08-11T03:29:56.263Z,17.05
2023-08-11T03:31:30.149Z,17.09
2023-08-11T03:33:04.728Z,17.12
2023-08-11T03:34:50.749Z,17.12
2023-08-11T03:36:24.050Z,17.06
2023-08-11T03:37:56.400Z,17.14
2023-08-11T03:39:29.749Z,17.10
2023-08-11T03:41:04.165Z,17.10
2023-08-11T03:42:37.355Z,17.05
2023-08-11T03:44:11.178Z,17.01
2023-08-11T03:45:44.522Z,17.01
2023-08-11T03:47:20.912Z,17.04
2023-08-11T03:48:55.101Z,17.07
2023-08-11T03:50:27.877Z,17.08
2023-08-11T03:52:01.222Z,17.09
2023-08-11T03:53:34.657Z,17.13
2023-08-11T03:55:10.971Z,17.13
2023-08-11T03:56:46.030Z,17.10
2023-08-11T03:58:19.270Z,17.13
2023-08-11T03:59:56.472Z,17.18
2023-08-11T04:01:29.452Z,17.25
2023-08-11T04:03:02.850Z,17.30
2023-08-11T04:04:35.239Z,17.33
2023-08-11T04:06:08.629Z,17.40
2023-08-11T04:07:41.014Z,17.43
2023-08-11T04:09:15.523Z,17.44
2023-08-11T04:10:48.861Z,17.49
2023-08-11T04:12:21.274Z,17.53
2023-08-11T04:13:55.090Z,17.56
2023-08-11T04:15:28.670Z,17.63
2023-08-11T04:17:01.945Z,17.64
2023-08-11T04:18:34.340Z,17.71
2023-08-11T04:20:14.302Z,17.76
2023-08-11T04:21:47.029Z,17.81
2023-08-11T04:23:20.648Z,17.90
2023-08-11T04:24:53.030Z,17.97
2023-08-11T04:26:26.406Z,18.03
2023-08-11T04:28:00.880Z,18.09
2023-08-11T04:29:34.728Z,18.16
2023-08-11T04:31:10.931Z,18.21
2023-08-11T04:32:45.645Z,18.19
2023-08-11T04:34:18.495Z,18.20
2023-08-11T04:35:52.782Z,18.19
2023-08-11T04:37:25.312Z,18.16
2023-08-11T04:38:58.536Z,18.14
2023-08-11T04:40:32.908Z,18.09
2023-08-11T04:42:05.712Z,18.12
2023-08-11T04:43:39.509Z,18.10
2023-08-11T04:45:12.383Z,18.07
2023-08-11T04:46:48.805Z,18.04
2023-08-11T04:48:22.536Z,18.05
2023-08-11T04:49:59.146Z,18.09
2023-08-11T04:51:33.263Z,18.16
2023-08-11T04:53:05.711Z,18.16
2023-08-11T04:54:39.052Z,18.09
2023-08-11T04:56:11.367Z,18.20
2023-08-11T04:57:44.921Z,18.25
2023-08-11T04:59:17.513Z,18.27
2023-08-11T05:00:50.830Z,18.28
2023-08-11T05:02:24.639Z,18.30
2023-08-11T05:03:57.919Z,18.37
2023-08-11T05:05:30.202Z,18.44
2023-08-11T05:07:04.421Z,18.47
2023-08-11T05:08:38.239Z,18.54
2023-08-11T05:10:12.001Z,18.59
2023-08-11T05:11:44.565Z,18.67
2023-08-11T05:13:17.804Z,18.77
2023-08-11T05:14:50.234Z,18.84
2023-08-11T05:16:23.608Z,18.90
2023-08-11T05:17:57.540Z,19.02
2023-08-11T05:19:30.854Z,19.34
2023-08-11T05:21:06.887Z,19.71
2023-08-11T05:22:40.038Z,19.92
2023-08-11T05:24:12.368Z,20.17
2023-08-11T05:25:45.688Z,20.56
2023-08-11T05:27:18.016Z,20.86
2023-08-11T05:28:51.601Z,21.02
2023-08-11T05:30:28.989Z,21.15
2023-08-11T05:32:01.325Z,21.28
2023-08-11T05:33:36.064Z,21.42
2023-08-11T05:35:09.736Z,21.70
2023-08-11T05:36:43.168Z,22.00
2023-08-11T05:38:15.605Z,22.50
2023-08-11T05:39:49.260Z,22.55
2023-08-11T05:41:21.562Z,22.68
2023-08-11T05:42:54.852Z,22.89
2023-08-11T05:44:27.056Z,22.95
2023-08-11T05:46:00.696Z,23.11
2023-08-11T05:47:33.016Z,23.22
2023-08-11T05:49:07.675Z,23.14
2023-08-11T05:50:41.427Z,23.28
2023-08-11T05:52:13.820Z,23.51
2023-08-11T05:53:51.764Z,23.50
2023-08-11T05:55:26.391Z,23.66
2023-08-11T05:56:59.764Z,23.83
2023-08-11T05:58:32.336Z,23.84
2023-08-11T06:00:06.802Z,23.73
2023-08-11T06:01:45.596Z,23.45
2023-08-11T06:03:19.037Z,23.35
2023-08-11T06:04:54.784Z,23.28
2023-08-11T06:06:27.844Z,23.12
2023-08-11T06:08:06.668Z,23.29
2023-08-11T06:09:39.304Z,23.20
2023-08-11T06:11:12.670Z,23.15
2023-08-11T06:12:44.816Z,23.14
2023-08-11T06:14:18.052Z,22.92
2023-08-11T06:15:50.573Z,22.83
2023-08-11T06:17:23.885Z,22.78
2023-08-11T06:18:56.922Z,22.77
2023-08-11T06:20:40.819Z,23.01
2023-08-11T06:22:15.166Z,23.73
2023-08-11T06:23:48.531Z,24.31
2023-08-11T06:25:21.973Z,24.71
2023-08-11T06:26:54.768Z,24.98
2023-08-11T06:28:27.998Z,24.98
2023-08-11T06:30:00.312Z,24.91
2023-08-11T06:31:33.599Z,25.29
2023-08-11T06:33:06.183Z,25.34
2023-08-11T06:34:39.747Z,25.56
2023-08-11T06:36:14.619Z,26.08
2023-08-11T06:37:46.915Z,26.53
2023-08-11T06:39:20.332Z,26.86
2023-08-11T06:40:53.102Z,27.21
2023-08-11T06:42:26.454Z,27.14
2023-08-11T06:44:09.688Z,27.45
2023-08-11T06:45:46.263Z,27.77
2023-08-11T06:47:19.748Z,28.12
2023-08-11T06:48:52.163Z,28.49
2023-08-11T06:50:25.540Z,28.90
2023-08-11T06:51:59.123Z,29.24
2023-08-11T06:53:32.360Z,29.23
2023-08-11T06:55:06.245Z,29.12
2023-08-11T06:56:39.451Z,28.96
2023-08-11T06:58:11.907Z,28.87
2023-08-11T06:59:45.278Z,28.96
2023-08-11T07:01:19.402Z,28.79
2023-08-11T07:02:52.829Z,28.78
2023-08-11T07:04:26.443Z,28.69
2023-08-11T07:05:59.701Z,28.97
2023-08-11T07:07:33.331Z,29.07
2023-08-11T07:09:07.193Z,29.10
2023-08-11T07:10:40.673Z,29.50
2023-08-11T07:12:14.058Z,29.65
2023-08-11T07:13:46.535Z,29.72
2023-08-11T07:15:19.921Z,29.71
2023-08-11T07:16:52.391Z,29.94
2023-08-11T07:18:25.693Z,30.15
2023-08-11T07:19:58.094Z,30.06
2023-08-11T07:21:31.337Z,30.31
2023-08-11T07:23:05.051Z,30.36
2023-08-11T07:24:38.314Z,30.32
2023-08-11T07:26:10.738Z,30.21
2023-08-11T07:27:43.992Z,29.86
2023-08-11T07:29:16.371Z,30.18
2023-08-11T07:30:49.571Z,30.22
2023-08-11T07:32:21.844Z,29.77
2023-08-11T07:33:55.037Z,29.85
2023-08-11T07:35:27.556Z,29.78
2023-08-11T07:37:00.787Z,29.93
2023-08-11T07:38:34.499Z,30.12
2023-08-11T07:40:09.117Z,30.17
2023-08-11T07:41:42.500Z,30.15
2023-08-11T07:43:15.801Z,30.58
2023-08-11T07:44:48.112Z,30.75
2023-08-11T07:46:21.964Z,30.50
2023-08-11T07:47:54.368Z,30.43
2023-08-11T07:49:27.701Z,30.80
2023-08-11T07:51:00.162Z,30.93
2023-08-11T07:52:33.452Z,30.87
2023-08-11T07:54:07.187Z,30.44
2023-08-11T07:55:42.128Z,30.75
2023-08-11T07:57:17.533Z,31.35
2023-08-11T07:58:54.117Z,31.64
2023-08-11T08:00:27.364Z,31.65
2023-08-11T08:02:00.823Z,31.83
2023-08-11T08:03:34.432Z,32.06
2023-08-11T08:05:12.798Z,31.72
2023-08-11T08:06:47.466Z,31.46
2023-08-11T08:08:19.725Z,31.43
2023-08-11T08:09:54.490Z,31.44
2023-08-11T08:11:27.462Z,31.40
2023-08-11T08:13:00.899Z,31.37
2023-08-11T08:14:33.138Z,31.07
2023-08-11T08:16:07.200Z,30.63
2023-08-11T08:17:39.889Z,29.96
2023-08-11T08:19:14.044Z,29.50
2023-08-11T08:20:46.319Z,29.19
2023-08-11T08:22:19.740Z,29.04
2023-08-11T08:23:51.996Z,29.28
2023-08-11T08:25:26.897Z,29.73
2023-08-11T08:26:59.141Z,30.16
2023-08-11T08:28:34.420Z,30.39
2023-08-11T08:30:09.211Z,30.17
2023-08-11T08:31:42.927Z,30.52
2023-08-11T08:33:16.235Z,30.98
2023-08-11T08:34:50.129Z,30.91
2023-08-11T08:36:23.689Z,31.00
2023-08-11T08:37:56.268Z,31.05
2023-08-11T08:39:29.649Z,30.34
2023-08-11T08:41:04.796Z,30.67
2023-08-11T08:42:37.451Z,30.68
2023-08-11T08:44:10.999Z,30.61
2023-08-11T08:45:44.893Z,30.92
2023-08-11T08:47:19.563Z,31.45
2023-08-11T08:48:59.205Z,31.20
2023-08-11T08:50:32.779Z,30.86
2023-08-11T08:52:06.263Z,31.00
2023-08-11T08:53:39.952Z,30.93
2023-08-11T08:55:12.960Z,30.41
2023-08-11T08:56:48.343Z,30.20
2023-08-11T08:58:21.584Z,30.00
2023-08-11T08:59:54.994Z,29.99
2023-08-11T09:01:27.859Z,30.38
2023-08-11T09:03:02.703Z,30.63
2023-08-11T09:04:35.872Z,29.88
2023-08-11T09:06:10.481Z,30.09
2023-08-11T09:07:42.950Z,30.18
2023-08-11T09:09:16.585Z,30.37
2023-08-11T09:10:48.889Z,30.58
2023-08-11T09:12:27.343Z,30.55
2023-08-11T09:14:03.997Z,30.37
2023-08-11T09:15:38.354Z,29.89
2023-08-11T09:17:12.559Z,29.71
2023-08-11T09:18:47.137Z,29.35
2023-08-11T09:20:21.239Z,29.09
2023-08-11T09:21:54.328Z,28.60
2023-08-11T09:23:27.503Z,28.61
2023-08-11T09:25:01.071Z,28.44
2023-08-11T09:26:33.255Z,27.91
2023-08-11T09:28:08.064Z,27.77
2023-08-11T09:29:40.223Z,27.02
2023-08-11T09:31:14.712Z,26.78
2023-08-11T09:32:50.457Z,26.65
2023-08-11T09:34:23.835Z,26.67
2023-08-11T09:35:57.099Z,26.57
2023-08-11T09:37:29.538Z,26.58
2023-08-11T09:39:08.363Z,26.55
2023-08-11T09:40:42.234Z,26.59
2023-08-11T09:42:17.580Z,26.50
2023-08-11T09:43:51.641Z,26.53
2023-08-11T09:45:26.050Z,26.33
2023-08-11T09:46:59.767Z,26.26
2023-08-11T09:48:32.833Z,26.23
2023-08-11T09:50:06.665Z,26.39
2023-08-11T09:51:40.431Z,26.39
2023-08-11T09:53:14.063Z,26.53
2023-08-11T09:54:50.298Z,26.48
2023-08-11T09:56:25.020Z,26.65
2023-08-11T09:57:58.887Z,26.87
2023-08-11T09:59:33.787Z,27.09
2023-08-11T10:01:20.328Z,27.28
2023-08-11T10:03:01.880Z,27.69
2023-08-11T10:04:39.289Z,27.98
2023-08-11T10:06:17.821Z,28.26
2023-08-11T10:07:55.320Z,28.42
2023-08-11T10:09:30.512Z,28.66
2023-08-11T10:11:05.283Z,28.58
2023-08-11T10:12:41.559Z,28.37
2023-08-11T10:14:20.774Z,28.58
2023-08-11T10:15:57.297Z,28.31
2023-08-11T10:17:30.141Z,28.10
2023-08-11T10:19:03.925Z,28.01
2023-08-11T10:20:36.939Z,27.88
2023-08-11T10:22:11.154Z,27.76
2023-08-11T10:23:44.325Z,27.70
2023-08-11T10:25:18.286Z,27.61
2023-08-11T10:26:52.406Z,27.68
2023-08-11T10:28:24.973Z,27.71
2023-08-11T10:29:59.885Z,27.76
2023-08-11T10:31:34.489Z,27.97
2023-08-11T10:33:10.696Z,27.98
2023-08-11T10:34:43.421Z,28.03
2023-08-11T10:36:18.760Z,28.09
2023-08-11T10:37:58.910Z,27.89
2023-08-11T10:39:32.166Z,28.00
2023-08-11T10:41:06.397Z,28.13
2023-08-11T10:42:41.506Z,28.37
2023-08-11T10:44:17.709Z,28.46
2023-08-11T10:45:51.392Z,28.63
2023-08-11T10:47:26.110Z,28.82
2023-08-11T10:49:00.285Z,28.86
2023-08-11T10:50:34.029Z,28.84
2023-08-11T10:52:07.114Z,28.71
2023-08-11T10:53:42.241Z,28.48
2023-08-11T10:55:16.470Z,28.20
2023-08-11T10:56:50.051Z,27.91
2023-08-11T10:58:25.210Z,27.62
2023-08-11T10:59:59.068Z,27.58
2023-08-11T11:01:31.457Z,27.46
2023-08-11T11:03:07.831Z,27.45
2023-08-11T11:04:45.350Z,27.44
2023-08-11T11:06:17.721Z,27.36
2023-08-11T11:07:53.378Z,27.34
2023-08-11T11:09:26.603Z,27.33
2023-08-11T11:10:58.953Z,27.47
2023-08-11T11:12:34.068Z,27.54
2023-08-11T11:14:07.552Z,27.58
2023-08-11T11:15:40.841Z,27.71
2023-08-11T11:17:13.108Z,27.80
2023-08-11T11:18:49.819Z,27.85
2023-08-11T11:20:23.859Z,27.84
2023-08-11T11:21:56.338Z,27.87
2023-08-11T11:23:29.605Z,27.93
2023-08-11T11:25:04.608Z,27.88
2023-08-11T11:26:37.125Z,27.92
2023-08-11T11:28:13.150Z,27.93
2023-08-11T11:29:46.413Z,27.96
2023-08-11T11:31:20.230Z,28.05
2023-08-11T11:32:53.489Z,27.99
2023-08-11T11:34:27.128Z,27.87
2023-08-11T11:39:51.139Z,27.58
2023-08-11T11:41:24.551Z,27.65
2023-08-11T11:42:58.483Z,27.73
2023-08-11T11:44:30.840Z,27.85
2023-08-11T11:46:04.425Z,27.87
2023-08-11T11:47:38.156Z,28.03
2023-08-11T11:49:23.715Z,28.19
2023-08-11T11:51:04.507Z,28.25
2023-08-11T11:52:39.344Z,28.18
2023-08-11T11:54:11.600Z,28.12
2023-08-11T11:55:46.242Z,28.16
2023-08-11T11:57:18.640Z,28.25
2023-08-11T11:58:52.356Z,28.24
2023-08-11T12:00:26.671Z,28.21
2023-08-11T12:02:01.913Z,28.14
2023-08-11T12:03:34.573Z,27.94
2023-08-11T12:05:09.466Z,27.99
2023-08-11T12:06:43.516Z,28.00
2023-08-11T12:08:22.218Z,27.92
2023-08-11T12:09:54.987Z,28.01
2023-08-11T12:11:31.951Z,27.95
2023-08-11T12:13:04.533Z,27.92
2023-08-11T12:14:37.744Z,28.09
2023-08-11T12:16:11.612Z,28.33
2023-08-11T12:17:50.219Z,28.55
2023-08-11T12:19:24.133Z,28.70
2023-08-11T12:21:00.117Z,28.85
2023-08-11T12:22:33.708Z,28.96
2023-08-11T12:24:10.646Z,29.14
2023-08-11T12:25:42.996Z,29.14
2023-08-11T12:27:16.299Z,29.15
2023-08-11T12:28:49.478Z,29.18
2023-08-11T12:30:22.845Z,29.21
2023-08-11T12:31:56.059Z,29.15
2023-08-11T12:33:28.893Z,29.17
2023-08-11T12:35:02.153Z,29.26
2023-08-11T12:36:35.572Z,29.04
2023-08-11T12:38:13.468Z,28.99
2023-08-11T12:39:46.675Z,28.88
2023-08-11T12:41:20.120Z,28.71
2023-08-11T12:42:53.260Z,28.43
2023-08-11T12:44:26.531Z,28.55
2023-08-11T12:45:58.836Z,28.59
2023-08-11T12:47:32.134Z,28.56
2023-08-11T12:49:05.732Z,28.60
2023-08-11T12:50:38.450Z,28.77
2023-08-11T12:52:11.844Z,28.94
2023-08-11T12:53:46.653Z,29.03
2023-08-11T12:55:18.986Z,29.05
2023-08-11T12:56:52.203Z,29.02
2023-08-11T12:58:25.469Z,28.99
2023-08-11T12:59:57.707Z,29.17
2023-08-11T13:01:31.034Z,29.22
2023-08-11T13:03:03.707Z,29.29
2023-08-11T13:04:37.265Z,29.25
2023-08-11T13:06:10.525Z,29.37
2023-08-11T13:07:42.904Z,29.39
2023-08-11T13:09:17.461Z,29.39
2023-08-11T13:10:50.783Z,29.38
2023-08-11T13:12:22.960Z,29.33
2023-08-11T13:13:56.255Z,29.09
2023-08-11T13:15:29.737Z,28.88
2023-08-11T13:17:01.893Z,28.95
2023-08-11T13:18:35.107Z,29.00
2023-08-11T13:20:11.076Z,29.05
2023-08-11T13:21:44.546Z,29.00
2023-08-11T13:23:17.760Z,29.05
2023-08-11T13:24:51.425Z,29.21
2023-08-11T13:26:24.728Z,29.29
2023-08-11T13:27:58.245Z,29.30
2023-08-11T13:29:30.590Z,29.34
2023-08-11T13:31:03.960Z,29.34
2023-08-11T13:32:37.797Z,29.49
2023-08-11T13:34:10.180Z,29.58
2023-08-11T13:35:43.448Z,29.66
2023-08-11T13:37:17.019Z,29.63
2023-08-11T13:38:49.313Z,29.68
2023-08-11T13:40:24.952Z,29.52
2023-08-11T13:41:58.144Z,29.45
2023-08-11T13:43:30.362Z,29.32
2023-08-11T13:45:03.796Z,29.29
2023-08-11T13:46:36.208Z,29.25
2023-08-11T13:48:09.804Z,29.16
2023-08-11T13:49:43.064Z,29.11
2023-08-11T13:51:15.397Z,29.09
2023-08-11T13:52:48.810Z,29.10
2023-08-11T13:54:21.074Z,29.10
2023-08-11T13:55:55.665Z,29.02
2023-08-11T13:57:28.351Z,28.97
2023-08-11T13:59:02.753Z,28.95
2023-08-11T14:00:34.931Z,28.87
2023-08-11T14:02:08.263Z,28.95
2023-08-11T14:03:40.847Z,28.98
2023-08-11T14:05:14.457Z,28.94
2023-08-11T14:06:47.728Z,28.73
2023-08-11T14:08:20.854Z,28.71
2023-08-11T14:09:54.294Z,28.71
2023-08-11T14:11:27.978Z,28.67
2023-08-11T14:13:01.192Z,28.67
2023-08-11T14:14:33.622Z,28.64
2023-08-11T14:16:07.070Z,28.64
2023-08-11T14:17:40.447Z,28.54
2023-08-11T14:19:12.727Z,28.54
2023-08-11T14:20:45.994Z,28.42
2023-08-11T14:22:19.810Z,28.38
2023-08-11T14:23:52.188Z,28.32
2023-08-11T14:25:25.573Z,28.19
2023-08-11T14:26:59.187Z,28.14
2023-08-11T14:28:32.583Z,28.08
2023-08-11T14:30:05.969Z,28.06
2023-08-11T14:31:39.185Z,28.08
2023-08-11T14:33:11.550Z,28.04
2023-08-11T14:34:45.075Z,28.01
2023-08-11T14:36:18.483Z,27.98
2023-08-11T14:37:50.696Z,27.93
2023-08-11T14:39:23.916Z,27.91
2023-08-11T14:40:56.136Z,27.98
2023-08-11T14:42:30.971Z,28.02
2023-08-11T14:44:04.615Z,27.98
2023-08-11T14:45:36.757Z,27.99
2023-08-11T14:47:14.544Z,27.89
2023-08-11T14:48:47.613Z,27.88
2023-08-11T14:50:21.505Z,27.87
2023-08-11T14:51:55.092Z,27.87
2023-08-11T14:53:30.563Z,27.79
2023-08-11T14:55:02.991Z,27.65
2023-08-11T14:56:36.193Z,27.49
2023-08-11T14:58:10.456Z,27.43
2023-08-11T14:59:44.258Z,27.44
2023-08-11T15:01:17.437Z,27.45
2023-08-11T15:02:50.794Z,27.46
2023-08-11T15:04:24.050Z,27.42
2023-08-11T15:05:56.500Z,27.44
2023-08-11T15:07:29.867Z,27.44
2023-08-11T15:09:03.935Z,27.45
2023-08-11T15:10:36.919Z,27.44
2023-08-11T15:12:10.835Z,27.39
2023-08-11T15:13:44.673Z,27.39
2023-08-11T15:15:17.872Z,27.38
2023-08-11T15:16:51.261Z,27.38
2023-08-11T15:18:25.589Z,27.53
2023-08-11T15:19:59.032Z,27.59
2023-08-11T15:21:31.256Z,27.63
2023-08-11T15:23:04.698Z,27.61
2023-08-11T15:24:36.949Z,27.61
2023-08-11T15:26:11.033Z,27.67
2023-08-11T15:27:43.779Z,27.74
2023-08-11T15:29:18.424Z,27.87
2023-08-11T15:30:53.151Z,27.97
2023-08-11T15:32:26.018Z,28.02
2023-08-11T15:33:59.246Z,27.99
2023-08-11T15:35:31.531Z,28.03
2023-08-11T15:37:04.892Z,28.06
2023-08-11T15:38:37.385Z,28.14
2023-08-11T15:40:11.626Z,28.20
2023-08-11T15:41:43.913Z,28.24
2023-08-11T15:43:17.189Z,28.29
2023-08-11T15:44:51.129Z,28.32
2023-08-11T15:46:24.627Z,28.35
2023-08-11T15:47:56.907Z,28.35
2023-08-11T15:49:30.375Z,28.34
2023-08-11T15:51:03.662Z,28.37
2023-08-11T15:52:36.515Z,28.35
2023-08-11T15:54:10.071Z,28.46
2023-08-11T15:55:42.445Z,28.48
2023-08-11T15:57:15.816Z,28.48
2023-08-11T15:58:48.049Z,28.46
2023-08-11T16:00:22.722Z,28.46
2023-08-11T16:02:14.849Z,28.43
2023-08-11T16:03:48.884Z,28.44
2023-08-11T16:05:21.109Z,28.42
2023-08-11T16:06:55.557Z,28.38
2023-08-11T16:08:28.085Z,28.33
2023-08-11T16:10:01.428Z,28.34
2023-08-11T16:11:35.032Z,28.31
2023-08-11T16:13:10.729Z,28.29
2023-08-11T16:14:43.435Z,28.26
2023-08-11T16:16:18.150Z,28.21
2023-08-11T16:17:53.431Z,28.17
2023-08-11T16:19:26.799Z,28.00
2023-08-11T16:20:59.347Z,27.94
2023-08-11T16:22:34.887Z,27.82
2023-08-11T16:24:07.225Z,27.82
2023-08-11T16:25:40.452Z,27.76
2023-08-11T16:27:12.632Z,27.65
2023-08-11T16:28:46.201Z,27.59
2023-08-11T16:30:18.516Z,27.44
2023-08-11T16:31:53.279Z,27.32
2023-08-11T16:33:25.939Z,27.19
2023-08-11T16:35:00.292Z,27.17
2023-08-11T16:36:32.447Z,27.13
2023-08-11T16:38:06.474Z,27.03
2023-08-11T16:39:39.230Z,26.95
2023-08-11T16:41:14.515Z,26.91
2023-08-11T16:42:46.725Z,26.76
2023-08-11T16:44:19.981Z,26.76
2023-08-11T16:45:52.356Z,26.68
2023-08-11T16:47:29.027Z,26.65
2023-08-11T16:49:02.470Z,26.59
2023-08-11T16:50:34.705Z,26.50
2023-08-11T16:52:08.569Z,26.40
2023-08-11T16:53:41.009Z,26.45
2023-08-11T16:55:14.250Z,26.37
2023-08-11T16:56:46.421Z,26.30
2023-08-11T16:58:19.829Z,26.20
2023-08-11T16:59:52.141Z,26.15
2023-08-11T17:01:25.290Z,26.04
2023-08-11T17:02:59.205Z,25.99
2023-08-11T17:04:32.548Z,25.96
2023-08-11T17:06:05.186Z,25.92
2023-08-11T17:07:38.443Z,25.89
2023-08-11T17:09:11.056Z,25.88
2023-08-11T17:10:44.419Z,25.86
2023-08-11T17:12:17.762Z,25.82
2023-08-11T17:13:50.120Z,25.72
2023-08-11T17:15:24.186Z,25.60
2023-08-11T17:16:56.550Z,25.56
2023-08-11T17:18:31.168Z,25.43
2023-08-11T17:20:05.150Z,25.38
2023-08-11T17:21:38.401Z,25.29
2023-08-11T17:23:10.816Z,25.23
2023-08-11T17:24:43.973Z,25.18
2023-08-11T17:26:17.315Z,25.03
2023-08-11T17:27:49.627Z,24.93
2023-08-11T17:29:23.055Z,24.85
2023-08-11T17:30:57.121Z,24.74
2023-08-11T17:32:31.430Z,24.66
2023-08-11T17:34:05.319Z,24.58
2023-08-11T17:35:40.519Z,24.53
2023-08-11T17:37:12.674Z,24.42
2023-08-11T17:38:45.916Z,24.47
2023-08-11T17:40:18.219Z,24.43
2023-08-11T17:42:03.262Z,24.32
2023-08-11T17:43:35.575Z,24.18
2023-08-11T17:45:10.249Z,24.22
2023-08-11T17:46:42.540Z,24.12
2023-08-11T17:48:16.230Z,24.07
2023-08-11T17:49:52.832Z,24.01
2023-08-11T17:51:25.443Z,23.91
2023-08-11T17:52:58.704Z,23.84
2023-08-11T17:54:32.024Z,23.74
2023-08-11T17:56:04.668Z,23.63
2023-08-11T17:57:37.894Z,23.55
2023-08-11T17:59:10.059Z,23.50
2023-08-11T18:00:43.485Z,23.43
2023-08-11T18:02:15.656Z,23.33
2023-08-11T18:03:49.079Z,23.28
2023-08-11T18:05:23.677Z,23.20
2023-08-11T18:06:57.022Z,23.16
2023-08-11T18:08:29.438Z,23.11
2023-08-11T18:10:02.818Z,23.00
2023-08-11T18:11:36.579Z,22.89
2023-08-11T18:13:10.010Z,22.78
2023-08-11T18:14:54.696Z,22.71
2023-08-11T18:16:28.235Z,22.72
2023-08-11T18:18:01.773Z,22.67
2023-08-11T18:19:34.010Z,22.61
2023-08-11T18:21:19.192Z,22.54
2023-08-11T18:22:54.018Z,22.43
2023-08-11T18:24:26.203Z,22.33
2023-08-11T18:25:59.589Z,22.23
2023-08-11T18:27:33.683Z,22.20
2023-08-11T18:29:07.499Z,22.10
2023-08-11T18:30:40.258Z,21.89
2023-08-11T18:32:13.825Z,21.85
2023-08-11T18:35:19.511Z,21.70
2023-08-11T18:36:53.199Z,21.62
2023-08-11T18:38:26.550Z,21.53
2023-08-11T18:39:58.881Z,21.44
2023-08-11T18:41:32.099Z,21.34
2023-08-11T18:43:05.759Z,21.19
2023-08-11T18:44:38.198Z,21.10
2023-08-11T18:46:11.608Z,21.00
2023-08-11T18:47:43.860Z,20.94
2023-08-11T18:49:17.071Z,20.88
2023-08-11T18:50:50.403Z,20.80
2023-08-11T18:52:24.130Z,20.65
2023-08-11T18:53:57.314Z,20.56
2023-08-11T18:55:29.934Z,20.44
2023-08-11T18:57:04.074Z,20.34
2023-08-11T18:58:36.641Z,20.17
2023-08-11T19:00:11.185Z,20.04
2023-08-11T19:01:43.638Z,19.96
2023-08-11T19:03:17.080Z,19.93
2023-08-11T19:04:49.798Z,19.95
2023-08-11T19:06:22.958Z,19.97
2023-08-11T19:07:56.466Z,20.03
2023-08-11T19:09:37.417Z,19.99
2023-08-11T19:11:09.946Z,20.06
2023-08-11T19:12:43.253Z,20.06
2023-08-11T19:14:15.767Z,20.08
2023-08-11T19:15:49.482Z,20.11
2023-08-11T19:17:22.142Z,20.15
2023-08-11T19:18:55.335Z,20.19
2023-08-11T19:20:28.560Z,20.18
2023-08-11T19:22:01.010Z,20.21
2023-08-11T19:23:36.247Z,20.18
2023-08-11T19:25:09.082Z,20.04
2023-08-11T19:26:42.936Z,19.91
2023-08-11T19:28:15.275Z,19.67
2023-08-11T19:29:48.691Z,19.53
2023-08-11T19:31:21.082Z,19.36
2023-08-11T19:32:55.381Z,19.15
2023-08-11T19:34:28.777Z,19.00
2023-08-11T19:36:02.241Z,18.99
2023-08-11T19:37:35.464Z,18.93
2023-08-11T19:39:10.290Z,18.87
2023-08-11T19:40:45.322Z,18.97
2023-08-11T19:42:17.778Z,18.98
2023-08-11T19:43:51.104Z,18.99
2023-08-11T19:45:24.304Z,19.01
2023-08-11T19:46:56.749Z,19.04
2023-08-11T19:48:30.159Z,19.07
2023-08-11T19:50:02.382Z,19.07
2023-08-11T19:51:35.782Z,19.00
2023-08-11T19:53:08.125Z,18.94
2023-08-11T19:54:43.030Z,18.93
2023-08-11T19:56:15.187Z,18.94
2023-08-11T19:57:48.455Z,18.93
2023-08-11T19:59:21.004Z,18.91
2023-08-11T20:00:54.310Z,18.90
2023-08-11T20:02:26.941Z,18.90
2023-08-11T20:04:00.126Z,18.83
2023-08-11T20:05:32.689Z,18.77
2023-08-11T20:07:06.709Z,18.73
2023-08-11T20:08:38.948Z,18.69
2023-08-11T20:10:13.635Z,18.65
2023-08-11T20:11:46.172Z,18.64
2023-08-11T20:13:20.302Z,18.56
2023-08-11T20:14:52.507Z,18.58